Time;durP1;ratioP1;P1;durP2;ratioP2;P2;SDS_P1;SDS_P2;PMS_P1;PMS_P2;Temp;Humidity;BMP_temperature;BMP_pressure;BME280_temperature;BME280_humidity;BME280_pressure;Samples;Min_cycle;Max_cycle;Signal;HPM_P1;HPM_P2
2022/09/01 00:02:19;;;;;;;4.10;0.52;;;16.00;99.90;;;;;;5066756;28;20467;-69
2022/09/01 00:04:46;;;;;;;1.30;0.43;;;17.00;99.90;;;;;;5068625;28;20044;-70
2022/09/01 00:07:12;;;;;;;0.40;0.38;;;16.00;99.90;;;;;;5069841;28;20053;-70
2022/09/01 00:09:39;;;;;;;1.23;0.40;;;16.00;99.90;;;;;;5067703;28;20040;-70
2022/09/01 00:12:08;;;;;;;0.40;0.30;;;15.90;99.90;;;;;;5069436;28;20044;-70
2022/09/01 00:14:38;;;;;;;1.02;0.22;;;16.00;99.90;;;;;;5069696;28;20037;-69
2022/09/01 00:17:07;;;;;;;0.77;0.40;;;15.90;99.90;;;;;;5069004;28;20488;-70
2022/09/01 00:19:34;;;;;;;0.70;0.30;;;16.60;99.90;;;;;;5069811;28;20044;-69
2022/09/01 00:22:00;;;;;;;0.38;0.22;;;16.50;99.90;;;;;;5069736;28;20423;-72
2022/09/01 00:24:26;;;;;;;1.27;0.20;;;16.70;99.90;;;;;;5067807;28;20036;-72
2022/09/01 00:26:53;;;;;;;0.63;0.30;;;15.80;99.90;;;;;;5070232;28;20098;-74
2022/09/01 00:29:19;;;;;;;0.55;0.50;;;15.10;99.90;;;;;;5068824;28;20052;-72
2022/09/01 00:31:45;;;;;;;2.05;0.32;;;15.70;99.90;;;;;;5069556;28;20041;-73
2022/09/01 00:34:11;;;;;;;1.85;0.70;;;15.80;99.90;;;;;;5069653;28;20032;-74
2022/09/01 00:36:37;;;;;;;1.15;0.32;;;15.80;99.90;;;;;;5068862;28;20040;-74
2022/09/01 00:39:04;;;;;;;0.80;0.20;;;15.70;99.90;;;;;;5069830;28;20033;-73
2022/09/01 00:41:33;;;;;;;1.08;0.40;;;15.60;99.90;;;;;;5068924;28;20126;-73
2022/09/01 00:44:05;;;;;;;1.60;0.28;;;15.70;99.90;;;;;;5063271;28;20434;-73
2022/09/01 00:46:38;;;;;;;0.60;0.20;;;15.70;99.90;;;;;;5068399;28;20264;-73
2022/09/01 00:49:11;;;;;;;1.90;0.40;;;15.60;99.90;;;;;;5069237;28;20476;-74
2022/09/01 00:51:39;;;;;;;1.33;0.40;;;15.70;99.90;;;;;;5071038;28;20068;-76
2022/09/01 00:54:07;;;;;;;0.90;0.43;;;15.60;99.90;;;;;;5072937;28;20727;-76
2022/09/01 00:56:36;;;;;;;0.55;0.25;;;15.60;99.90;;;;;;5072630;28;20551;-75
2022/09/01 00:59:04;;;;;;;0.50;0.40;;;15.60;99.90;;;;;;5071039;28;20052;-74
2022/09/01 01:01:30;;;;;;;0.47;0.32;;;15.60;99.90;;;;;;5072484;28;20041;-74
2022/09/01 01:03:57;;;;;;;0.63;0.40;;;15.60;99.90;;;;;;5072997;28;20036;-75
2022/09/01 01:06:26;;;;;;;1.08;0.40;;;15.50;99.90;;;;;;5070920;28;20385;-75
2022/09/01 01:08:56;;;;;;;0.57;0.30;;;15.50;99.90;;;;;;5066701;28;20050;-71
2022/09/01 01:11:23;;;;;;;0.30;0.30;;;15.90;99.90;;;;;;5066755;28;20135;-74
2022/09/01 01:14:14;;;;;;;1.30;0.50;;;15.50;99.90;;;;;;5073063;28;20174;-74
2022/09/01 01:16:45;;;;;;;0.60;0.32;;;15.50;99.90;;;;;;5071467;28;20045;-75
2022/09/01 01:25:02;;;;;;;0.50;0.30;;;15.50;99.90;;;;;;5065564;28;20492;-71
2022/09/01 01:27:35;;;;;;;1.02;0.40;;;15.40;99.90;;;;;;5070354;28;20128;-73
2022/09/01 01:30:03;;;;;;;1.48;0.50;;;15.40;99.90;;;;;;5071643;28;20246;-71
2022/09/01 01:32:29;;;;;;;2.35;0.40;;;16.40;99.90;;;;;;5070935;28;20482;-72
2022/09/01 01:34:56;;;;;;;0.70;0.40;;;15.30;99.90;;;;;;5071913;28;20043;-74
2022/09/01 01:37:24;;;;;;;0.80;0.50;;;15.30;99.90;;;;;;5071948;28;20516;-72
2022/09/01 01:39:50;;;;;;;2.30;0.40;;;15.20;99.90;;;;;;5071317;28;20097;-73
2022/09/01 01:42:16;;;;;;;1.90;0.60;;;15.40;99.90;;;;;;5067383;28;20029;-74
2022/09/01 01:44:42;;;;;;;1.17;0.30;;;15.60;99.90;;;;;;5070665;28;20123;-73
2022/09/01 01:47:12;;;;;;;4.47;0.55;;;15.20;99.90;;;;;;5071331;28;20614;-71
2022/09/01 01:49:42;;;;;;;2.15;0.45;;;15.10;99.90;;;;;;5072278;28;20048;-70
2022/09/01 01:52:10;;;;;;;3.50;0.50;;;15.10;99.90;;;;;;5071528;28;20042;-73
2022/09/01 01:54:37;;;;;;;0.40;0.38;;;15.10;99.90;;;;;;5070041;28;20037;-74
2022/09/01 01:57:03;;;;;;;0.82;0.47;;;15.10;99.90;;;;;;5071693;28;20049;-69
2022/09/01 01:59:29;;;;;;;1.48;0.50;;;15.00;99.90;;;;;;5054041;28;20082;-70
2022/09/01 02:01:55;;;;;;;0.28;0.20;;;15.10;99.90;;;;;;5070544;28;20503;-70
2022/09/01 02:04:21;;;;;;;3.33;0.38;;;15.00;99.90;;;;;;5071300;28;20041;-71
2022/09/01 02:06:48;;;;;;;0.38;0.35;;;15.10;99.90;;;;;;5071612;28;20051;-71
2022/09/01 02:09:17;;;;;;;1.13;0.85;;;15.00;99.90;;;;;;5070654;28;20116;-71
2022/09/01 02:11:44;;;;;;;0.75;0.50;;;15.70;99.90;;;;;;5069811;28;20053;-70
2022/09/01 02:14:12;;;;;;;2.88;0.75;;;15.00;99.90;;;;;;5070186;28;20033;-75
2022/09/01 02:16:38;;;;;;;1.73;0.50;;;15.00;99.90;;;;;;5071028;28;20049;-74
2022/09/01 02:19:06;;;;;;;4.45;0.68;;;15.00;99.90;;;;;;5071534;28;20036;-69
2022/09/01 02:21:32;;;;;;;2.25;0.80;;;15.00;99.90;;;;;;5071604;28;20044;-71
2022/09/01 02:24:01;;;;;;;0.85;0.65;;;15.00;99.90;;;;;;5070581;28;20472;-69
2022/09/01 02:26:53;;;;;;;1.08;0.70;;;15.00;99.90;;;;;;5071092;28;20037;-69
2022/09/01 02:29:22;;;;;;;1.55;0.63;;;15.00;99.90;;;;;;5064695;28;20052;-71
2022/09/01 02:31:50;;;;;;;0.60;0.60;;;15.10;99.90;;;;;;5069714;28;20040;-69
2022/09/01 02:34:17;;;;;;;1.40;0.80;;;14.90;99.90;;;;;;5069581;28;20476;-72
2022/09/01 02:36:47;;;;;;;0.60;0.60;;;15.00;99.90;;;;;;5070586;28;20051;-70
2022/09/01 02:39:22;;;;;;;2.00;0.70;;;15.30;99.90;;;;;;5070915;28;20036;-70
2022/09/01 02:41:48;;;;;;;1.92;0.68;;;14.90;99.90;;;;;;5070094;28;20045;-70
2022/09/01 02:44:14;;;;;;;1.48;0.70;;;14.90;99.90;;;;;;5064408;28;20452;-71
2022/09/01 02:46:42;;;;;;;10.50;1.23;;;15.80;99.90;;;;;;5069830;28;20083;-72
2022/09/01 02:49:18;;;;;;;0.70;0.70;;;14.90;99.90;;;;;;5069239;28;20124;-73
2022/09/01 02:51:47;;;;;;;0.90;0.80;;;15.70;99.90;;;;;;5069995;28;20255;-71
2022/09/01 02:54:15;;;;;;;2.38;0.60;;;14.90;99.90;;;;;;5070588;28;20177;-74
2022/09/01 02:56:43;;;;;;;2.30;0.73;;;14.90;99.90;;;;;;5070689;28;20091;-75
2022/09/01 02:59:11;;;;;;;3.60;0.70;;;14.90;99.90;;;;;;5069643;28;20143;-72
2022/09/01 03:01:38;;;;;;;0.65;0.63;;;15.00;99.90;;;;;;5070554;28;20041;-69
2022/09/01 03:04:06;;;;;;;1.90;0.82;;;14.90;99.90;;;;;;5069815;28;20098;-72
2022/09/01 03:06:33;;;;;;;0.52;0.40;;;14.80;99.90;;;;;;5069350;28;20040;-75
2022/09/01 03:08:59;;;;;;;0.75;0.50;;;14.80;99.90;;;;;;5070427;28;20041;-74
2022/09/01 03:11:26;;;;;;;2.92;0.52;;;14.90;99.90;;;;;;5069465;28;20068;-71
2022/09/01 03:13:52;;;;;;;1.63;0.50;;;14.90;99.90;;;;;;5070361;28;20524;-70
2022/09/01 03:16:18;;;;;;;0.85;0.52;;;14.80;99.90;;;;;;5069232;28;20070;-73
2022/09/01 03:18:44;;;;;;;0.68;0.40;;;14.80;99.90;;;;;;5064899;28;20036;-69
2022/09/01 03:21:14;;;;;;;2.42;0.40;;;15.70;99.90;;;;;;5069886;28;20181;-70
2022/09/01 03:23:41;;;;;;;2.67;0.68;;;14.80;99.90;;;;;;5069046;28;20059;-72
2022/09/01 03:26:06;;;;;;;0.52;0.52;;;15.00;99.90;;;;;;5068102;28;20043;-74
2022/09/01 03:28:32;;;;;;;2.08;0.63;;;14.70;99.90;;;;;;5068942;28;20052;-74
2022/09/01 03:30:58;;;;;;;3.10;0.77;;;14.80;99.90;;;;;;5068673;28;20127;-75
2022/09/01 03:33:26;;;;;;;0.95;0.40;;;14.80;99.90;;;;;;5069299;28;20476;-72
2022/09/01 03:35:53;;;;;;;1.75;0.40;;;15.40;99.90;;;;;;5070202;28;20823;-69
2022/09/01 03:38:23;;;;;;;0.88;0.43;;;15.40;99.90;;;;;;5064342;28;20459;-73
2022/09/01 03:40:51;;;;;;;1.23;0.30;;;14.70;99.90;;;;;;5066552;28;20059;-71
2022/09/01 03:43:18;;;;;;;2.03;0.60;;;14.70;99.90;;;;;;5069946;28;20037;-69
2022/09/01 03:45:44;;;;;;;0.70;0.55;;;14.70;99.90;;;;;;5070113;28;20091;-70
2022/09/01 03:48:11;;;;;;;3.15;0.40;;;14.70;99.90;;;;;;5068040;28;20042;-74
2022/09/01 03:50:46;;;;;;;1.02;0.60;;;14.70;99.90;;;;;;5051740;28;20139;-72
2022/09/01 03:53:14;;;;;;;1.27;0.70;;;14.70;99.90;;;;;;5062894;28;20037;-74
2022/09/01 03:55:40;;;;;;;1.02;0.60;;;14.70;99.90;;;;;;5069949;28;20078;-71
2022/09/01 03:58:08;;;;;;;0.60;0.60;;;14.70;99.90;;;;;;5070290;28;20055;-72
2022/09/01 04:00:38;;;;;;;1.27;0.40;;;14.60;99.90;;;;;;5067882;28;20052;-72
2022/09/01 04:03:06;;;;;;;1.30;0.30;;;14.60;99.90;;;;;;5061767;28;20139;-69
2022/09/01 04:05:34;;;;;;;1.73;0.70;;;14.60;99.90;;;;;;5069032;28;20045;-70
2022/09/01 04:08:05;;;;;;;1.83;0.50;;;14.60;99.90;;;;;;5069793;28;20323;-71
2022/09/01 04:10:37;;;;;;;0.63;0.50;;;14.60;99.90;;;;;;5069939;28;20120;-69
2022/09/01 04:13:04;;;;;;;1.48;0.70;;;14.60;99.90;;;;;;5069959;28;20051;-70
2022/09/01 04:15:31;;;;;;;1.42;0.50;;;14.60;99.90;;;;;;5069139;28;20084;-72
2022/09/01 04:18:09;;;;;;;2.03;0.63;;;14.60;99.90;;;;;;5069996;28;20035;-71
2022/09/01 04:20:48;;;;;;;0.85;0.60;;;14.50;99.90;;;;;;5068623;28;20048;-70
2022/09/01 04:23:32;;;;;;;0.80;0.47;;;14.50;99.90;;;;;;5069057;28;20041;-70
2022/09/01 04:26:07;;;;;;;0.80;0.68;;;14.50;99.90;;;;;;5070265;28;20098;-70
2022/09/01 04:28:39;;;;;;;0.75;0.73;;;14.40;99.90;;;;;;5073256;28;20052;-69
2022/09/01 04:31:08;;;;;;;0.65;0.40;;;14.40;99.90;;;;;;5072362;28;20086;-70
2022/09/01 04:33:38;;;;;;;2.28;0.70;;;14.60;99.90;;;;;;5072592;28;20040;-71
2022/09/01 04:36:06;;;;;;;2.58;0.60;;;14.40;99.90;;;;;;5073329;28;20037;-70
2022/09/01 04:38:34;;;;;;;2.42;1.20;;;14.40;99.90;;;;;;5071992;28;20032;-69
2022/09/01 04:41:06;;;;;;;2.58;1.20;;;14.30;99.90;;;;;;5073288;28;20059;-69
2022/09/01 04:43:33;;;;;;;1.25;0.80;;;14.30;99.90;;;;;;5064014;28;20072;-69
2022/09/01 04:45:59;;;;;;;2.20;0.88;;;14.30;99.90;;;;;;5071048;28;20492;-71
2022/09/01 04:48:25;;;;;;;2.28;0.80;;;14.60;99.90;;;;;;5073503;28;20123;-69
2022/09/01 04:50:51;;;;;;;1.13;0.57;;;14.30;99.90;;;;;;5070495;28;20041;-70
2022/09/01 04:53:18;;;;;;;2.13;0.70;;;14.80;99.90;;;;;;5072110;28;20043;-75
2022/09/01 04:55:45;;;;;;;1.17;0.63;;;14.30;99.90;;;;;;5073251;28;20095;-70
2022/09/01 04:58:16;;;;;;;0.60;0.50;;;14.30;99.90;;;;;;5072555;28;20260;-71
2022/09/01 05:00:44;;;;;;;0.88;0.88;;;14.40;99.90;;;;;;5072978;28;20131;-74
2022/09/01 05:03:10;;;;;;;1.92;1.00;;;14.30;99.90;;;;;;5073139;28;20037;-73
2022/09/01 05:05:42;;;;;;;0.82;0.75;;;14.30;99.90;;;;;;5072563;28;20079;-75
2022/09/01 05:08:14;;;;;;;5.10;1.02;;;15.20;99.90;;;;;;5073169;28;20098;-76
2022/09/01 05:10:42;;;;;;;1.50;0.80;;;14.30;99.90;;;;;;5072746;28;20037;-75
2022/09/01 05:13:11;;;;;;;1.65;1.55;;;14.20;99.90;;;;;;5073082;28;20079;-73
2022/09/01 05:15:46;;;;;;;2.53;1.52;;;14.10;99.90;;;;;;5071829;28;20124;-70
2022/09/01 05:18:22;;;;;;;4.13;0.98;;;14.70;99.90;;;;;;5069789;28;20048;-73
2022/09/01 05:20:51;;;;;;;2.92;1.02;;;14.30;99.90;;;;;;5072826;28;20044;-70
2022/09/01 05:23:19;;;;;;;2.25;0.88;;;14.20;99.90;;;;;;5072462;28;20045;-74
2022/09/01 05:25:48;;;;;;;2.10;1.05;;;14.10;99.90;;;;;;5072254;28;20488;-75
2022/09/01 05:28:18;;;;;;;2.05;0.82;;;14.10;99.90;;;;;;5065381;28;20046;-72
2022/09/01 05:30:45;;;;;;;3.22;0.90;;;14.10;99.90;;;;;;5072205;28;20037;-71
2022/09/01 05:33:15;;;;;;;3.13;1.05;;;14.10;99.90;;;;;;5046338;28;20040;-76
2022/09/01 05:35:43;;;;;;;1.40;0.73;;;14.70;99.90;;;;;;5072525;28;20036;-72
2022/09/01 05:38:14;;;;;;;2.05;1.00;;;14.20;99.90;;;;;;5071240;28;20539;-74
2022/09/01 05:40:41;;;;;;;1.38;1.20;;;14.20;99.90;;;;;;5071877;28;20036;-71
2022/09/01 05:43:12;;;;;;;11.43;8.00;;;14.20;99.90;;;;;;5071521;28;20545;-71
2022/09/01 05:45:42;;;;;;;2.85;1.85;;;14.20;99.90;;;;;;5072462;28;20089;-71
2022/09/01 05:48:12;;;;;;;2.97;1.20;;;14.20;99.90;;;;;;5072470;28;20044;-73
2022/09/01 05:50:44;;;;;;;4.13;1.20;;;14.30;99.90;;;;;;5070950;28;20040;-74
2022/09/01 05:53:16;;;;;;;6.88;1.20;;;14.30;99.90;;;;;;5071454;28;20072;-72
2022/09/01 05:55:46;;;;;;;3.65;1.10;;;14.80;99.90;;;;;;5072374;28;20052;-71
2022/09/01 05:58:15;;;;;;;2.50;0.90;;;14.30;99.90;;;;;;5072569;28;20044;-76
2022/09/01 06:00:48;;;;;;;2.72;0.85;;;14.30;99.90;;;;;;5071046;28;20139;-73
2022/09/01 06:03:16;;;;;;;3.28;1.15;;;14.40;99.90;;;;;;5072309;28;20032;-74
2022/09/01 06:05:43;;;;;;;2.83;0.90;;;14.40;99.90;;;;;;5070956;28;20065;-75
2022/09/01 06:08:12;;;;;;;3.70;0.90;;;14.40;99.90;;;;;;5070251;28;21059;-75
2022/09/01 06:10:40;;;;;;;1.42;0.80;;;14.40;99.90;;;;;;5071485;28;20056;-74
2022/09/01 06:13:07;;;;;;;3.25;1.27;;;14.40;99.90;;;;;;5053370;28;20040;-70
2022/09/01 06:15:35;;;;;;;5.15;1.25;;;14.40;99.90;;;;;;5071111;28;20597;-72
2022/09/01 06:18:01;;;;;;;3.00;0.90;;;14.40;99.90;;;;;;5071440;28;20535;-75
2022/09/01 06:20:26;;;;;;;3.72;1.20;;;14.40;99.90;;;;;;5071039;28;20044;-71
2022/09/01 06:22:52;;;;;;;3.30;1.20;;;14.60;99.90;;;;;;5071068;28;20135;-73
2022/09/01 06:25:19;;;;;;;1.70;1.20;;;15.40;99.90;;;;;;5071513;28;20040;-73
2022/09/01 06:27:46;;;;;;;1.60;1.20;;;14.90;99.90;;;;;;5071446;28;20089;-70
2022/09/01 06:30:19;;;;;;;1.83;1.13;;;14.40;99.90;;;;;;5070437;28;20090;-74
2022/09/01 06:32:45;;;;;;;2.67;1.48;;;14.40;99.90;;;;;;5071695;28;20040;-70
2022/09/01 06:35:14;;;;;;;1.98;1.20;;;14.40;99.90;;;;;;5069592;28;20050;-70
2022/09/01 06:37:44;;;;;;;5.93;1.25;;;14.50;99.90;;;;;;5071526;28;20168;-74
2022/09/01 06:40:16;;;;;;;4.30;2.78;;;15.10;99.90;;;;;;5070521;28;20032;-71
2022/09/01 06:42:50;;;;;;;2.78;1.25;;;14.60;99.90;;;;;;5069081;28;20074;-70
2022/09/01 06:45:19;;;;;;;2.80;1.00;;;14.70;99.90;;;;;;5071148;28;20125;-74
2022/09/01 06:47:46;;;;;;;1.17;1.10;;;14.70;99.90;;;;;;5071921;28;20036;-72
2022/09/01 06:50:18;;;;;;;2.80;0.98;;;14.80;99.90;;;;;;5069570;28;20119;-69
2022/09/01 06:52:45;;;;;;;4.65;0.88;;;14.90;99.90;;;;;;5066792;28;20534;-73
2022/09/01 06:55:13;;;;;;;5.15;1.35;;;14.90;99.90;;;;;;5070474;28;20127;-75
2022/09/01 06:57:47;;;;;;;6.50;2.80;;;15.00;99.90;;;;;;5070343;28;20044;-70
2022/09/01 07:00:16;;;;;;;5.10;4.57;;;15.00;99.90;;;;;;5070563;28;20055;-71
2022/09/01 07:02:47;;;;;;;3.75;1.90;;;15.00;99.90;;;;;;5071392;28;20055;-72
2022/09/01 07:05:17;;;;;;;3.42;1.48;;;15.40;99.90;;;;;;5069911;28;20093;-70
2022/09/01 07:07:56;;;;;;;1.25;0.80;;;15.00;99.90;;;;;;5070608;28;20041;-70
2022/09/01 07:10:24;;;;;;;3.50;1.00;;;15.10;99.90;;;;;;5060430;28;20046;-70
2022/09/01 07:12:51;;;;;;;2.00;1.13;;;15.10;99.90;;;;;;5071130;28;20502;-71
2022/09/01 07:15:18;;;;;;;0.90;0.88;;;15.20;99.90;;;;;;5070498;28;20048;-72
2022/09/01 07:17:55;;;;;;;2.58;1.00;;;15.30;99.90;;;;;;5070389;28;20090;-75
2022/09/01 07:20:24;;;;;;;1.23;1.10;;;15.30;99.90;;;;;;5070255;28;20123;-72
2022/09/01 07:22:51;;;;;;;3.28;0.93;;;15.30;99.90;;;;;;5070970;28;20076;-74
2022/09/01 07:25:19;;;;;;;1.20;0.77;;;16.50;99.90;;;;;;5070193;28;20052;-74
2022/09/01 07:27:48;;;;;;;0.95;0.80;;;15.50;99.90;;;;;;5052921;28;20087;-73
2022/09/01 07:30:15;;;;;;;2.15;0.88;;;15.60;99.90;;;;;;5067386;28;20072;-75
2022/09/01 07:32:45;;;;;;;2.58;1.10;;;15.70;99.90;;;;;;5070487;28;20087;-75
2022/09/01 07:35:12;;;;;;;2.60;1.05;;;16.00;99.90;;;;;;5069011;28;20409;-75
2022/09/01 07:37:37;;;;;;;4.70;0.85;;;15.80;99.90;;;;;;5070149;28;20040;-76
2022/09/01 07:40:08;;;;;;;1.65;0.60;;;15.80;99.90;;;;;;5070370;28;20557;-75
2022/09/01 07:42:35;;;;;;;2.10;0.75;;;15.90;99.90;;;;;;5068674;28;20040;-75
2022/09/01 07:45:07;;;;;;;1.08;0.82;;;16.10;99.90;;;;;;5070470;28;20052;-75
2022/09/01 07:47:35;;;;;;;1.60;0.73;;;16.60;99.90;;;;;;5062001;28;20233;-74
2022/09/01 07:50:07;;;;;;;2.42;0.75;;;16.80;99.90;;;;;;5070480;28;20051;-73
2022/09/01 07:52:41;;;;;;;0.55;0.52;;;16.10;99.90;;;;;;5068783;28;20036;-74
2022/09/01 07:55:11;;;;;;;1.85;0.60;;;16.10;99.90;;;;;;5070546;28;20113;-72
2022/09/01 07:57:41;;;;;;;4.90;0.93;;;16.10;99.90;;;;;;5069650;28;20040;-75
2022/09/01 08:00:11;;;;;;;3.70;0.93;;;16.20;99.90;;;;;;5069242;28;20047;-75
2022/09/01 08:02:38;;;;;;;4.93;1.10;;;16.20;99.90;;;;;;5069320;28;20045;-75
2022/09/01 08:05:08;;;;;;;1.33;1.13;;;16.20;99.90;;;;;;5068587;28;20040;-75
2022/09/01 08:07:37;;;;;;;1.00;0.90;;;16.30;99.90;;;;;;5070685;28;20036;-74
2022/09/01 08:10:06;;;;;;;2.05;1.42;;;16.30;99.90;;;;;;5068864;28;20055;-73
2022/09/01 08:12:32;;;;;;;5.13;1.30;;;16.40;99.90;;;;;;5068264;28;20129;-75
2022/09/01 08:14:57;;;;;;;1.75;0.70;;;16.50;99.90;;;;;;5068483;28;20108;-70
2022/09/01 08:17:23;;;;;;;2.80;1.00;;;16.60;99.90;;;;;;5070014;28;20032;-75
2022/09/01 08:19:48;;;;;;;3.53;0.93;;;16.60;99.90;;;;;;5069258;28;20458;-70
2022/09/01 08:22:14;;;;;;;1.25;0.77;;;16.70;99.90;;;;;;5069833;28;20112;-74
2022/09/01 08:24:40;;;;;;;5.43;1.20;;;16.70;99.90;;;;;;5069862;28;20436;-75
2022/09/01 08:27:07;;;;;;;1.67;0.80;;;17.20;99.90;;;;;;5069128;28;20051;-72
2022/09/01 08:29:33;;;;;;;8.18;1.00;;;16.90;99.90;;;;;;5069624;28;20056;-71
2022/09/01 08:31:58;;;;;;;2.53;0.70;;;17.00;99.90;;;;;;5070015;28;20036;-75
2022/09/01 08:34:27;;;;;;;4.03;0.70;;;17.00;99.90;;;;;;5069371;28;20055;-75
2022/09/01 08:36:53;;;;;;;1.92;0.80;;;17.10;99.90;;;;;;5065161;28;20792;-70
2022/09/01 08:39:18;;;;;;;2.75;0.60;;;17.20;99.90;;;;;;5068193;28;20053;-72
2022/09/01 08:42:03;;;;;;;1.30;0.40;;;17.30;99.90;;;;;;5069318;28;20041;-75
2022/09/01 08:44:35;;;;;;;0.75;0.57;;;17.40;99.90;;;;;;5068356;28;20408;-75
2022/09/01 08:47:06;;;;;;;1.65;0.60;;;17.50;99.90;;;;;;5051565;28;20065;-75
2022/09/01 08:49:35;;;;;;;3.20;0.70;;;17.60;99.90;;;;;;5061147;28;20440;-73
2022/09/01 08:52:18;;;;;;;1.42;0.63;;;17.60;99.90;;;;;;5069867;28;20052;-75
2022/09/01 08:54:59;;;;;;;1.73;0.52;;;17.70;99.90;;;;;;5077915;28;20106;-74
2022/09/01 08:57:37;;;;;;;1.27;0.47;;;18.30;99.90;;;;;;5069621;28;20055;-75
2022/09/01 09:00:10;;;;;;;2.50;0.40;;;17.90;99.90;;;;;;5069684;28;20044;-74
2022/09/01 09:02:35;;;;;;;1.30;0.50;;;18.00;99.90;;;;;;5066961;28;20044;-75
2022/09/01 09:05:21;;;;;;;1.45;0.50;;;18.50;99.90;;;;;;5069980;28;20098;-73
2022/09/01 09:08:02;;;;;;;3.70;0.45;;;18.20;99.90;;;;;;5068448;28;20047;-70
2022/09/01 09:10:41;;;;;;;2.55;0.57;;;18.40;99.90;;;;;;5067916;28;20040;-71
2022/09/01 09:13:21;;;;;;;7.18;0.60;;;18.40;99.90;;;;;;5068666;28;20068;-68
2022/09/01 09:15:50;;;;;;;1.55;0.22;;;18.50;99.90;;;;;;5066514;28;20040;-69
2022/09/01 09:18:39;;;;;;;1.45;0.47;;;18.60;99.90;;;;;;5072850;28;20044;-69
2022/09/01 09:21:22;;;;;;;2.50;0.40;;;18.70;99.90;;;;;;5060854;28;20053;-69
2022/09/01 09:23:57;;;;;;;0.98;0.30;;;18.80;99.90;;;;;;5066044;28;20029;-70
2022/09/01 09:26:22;;;;;;;0.98;0.30;;;18.90;99.90;;;;;;5067793;28;20548;-69
2022/09/01 09:28:49;;;;;;;1.23;0.30;;;19.00;99.90;;;;;;5071556;28;20140;-70
2022/09/01 09:31:42;;;;;;;1.38;0.45;;;19.00;99.90;;;;;;5067000;28;20427;-69
2022/09/01 09:34:26;;;;;;;1.40;0.30;;;19.10;99.90;;;;;;5068937;28;20041;-72
2022/09/01 09:36:52;;;;;;;0.60;0.35;;;19.10;99.90;;;;;;5069579;28;20163;-71
2022/09/01 09:39:18;;;;;;;1.55;0.40;;;19.20;99.90;;;;;;5054776;28;20044;-73
2022/09/01 09:42:07;;;;;;;2.35;0.50;;;19.60;99.90;;;;;;5071336;28;20385;-75
2022/09/01 09:44:42;;;;;;;2.22;0.50;;;19.30;99.90;;;;;;5087355;28;20044;-75
2022/09/01 09:47:09;;;;;;;0.60;0.30;;;19.40;99.90;;;;;;5072777;28;20043;-73
2022/09/01 09:49:35;;;;;;;1.40;0.50;;;19.60;99.90;;;;;;5072214;28;20044;-75
2022/09/01 09:52:01;;;;;;;3.13;1.58;;;19.50;99.90;;;;;;5070249;28;20059;-74
2022/09/01 09:54:32;;;;;;;2.80;0.30;;;19.80;99.90;;;;;;5072142;28;20045;-73
2022/09/01 09:57:16;;;;;;;2.78;0.70;;;19.90;99.90;;;;;;5072612;28;20083;-75
2022/09/01 09:59:46;;;;;;;1.80;0.50;;;19.70;99.90;;;;;;5070621;28;20495;-75
2022/09/01 10:02:38;;;;;;;7.55;0.98;;;19.80;99.90;;;;;;5071973;28;20079;-75
2022/09/01 10:05:27;;;;;;;1.55;0.47;;;19.90;99.90;;;;;;5065989;28;20496;-74
2022/09/01 10:07:54;;;;;;;0.63;0.40;;;20.40;99.90;;;;;;5071325;28;20040;-75
2022/09/01 10:10:41;;;;;;;0.93;0.55;;;20.10;99.90;;;;;;5070014;28;20404;-72
2022/09/01 10:13:19;;;;;;;1.75;0.40;;;20.10;99.90;;;;;;5066673;28;20036;-74
2022/09/01 10:15:57;;;;;;;1.52;0.50;;;20.20;99.90;;;;;;5066196;28;20048;-73
2022/09/01 10:18:30;;;;;;;2.80;0.60;;;20.20;99.90;;;;;;5070926;28;20041;-74
2022/09/01 10:20:58;;;;;;;0.80;0.30;;;20.20;99.90;;;;;;5071375;28;20044;-74
2022/09/01 10:23:26;;;;;;;1.08;0.50;;;20.50;99.90;;;;;;5070805;28;20140;-72
2022/09/01 10:26:00;;;;;;;1.20;0.50;;;20.50;99.90;;;;;;5071309;28;20248;-74
2022/09/01 10:28:29;;;;;;;2.97;0.38;;;20.60;99.90;;;;;;5069131;28;20055;-75
2022/09/01 10:30:57;;;;;;;1.58;0.35;;;21.00;99.90;;;;;;5071367;28;20044;-74
2022/09/01 10:33:23;;;;;;;2.47;0.70;;;20.70;99.90;;;;;;5070810;28;20093;-75
2022/09/01 10:35:51;;;;;;;2.25;0.40;;;20.80;99.90;;;;;;5071939;28;20040;-73
2022/09/01 10:38:28;;;;;;;4.40;0.40;;;20.90;99.90;;;;;;5071178;28;20064;-73
2022/09/01 10:41:09;;;;;;;1.90;0.30;;;20.90;99.90;;;;;;5063948;28;20067;-70
2022/09/01 10:43:45;;;;;;;2.65;0.30;;;21.10;99.50;;;;;;5065325;28;20048;-74
2022/09/01 10:46:21;;;;;;;1.00;0.20;;;21.30;99.30;;;;;;5070801;28;20135;-71
2022/09/01 10:48:55;;;;;;;0.40;0.10;;;21.40;98.10;;;;;;5067501;28;20040;-75
2022/09/01 10:51:20;;;;;;;;;;;21.50;98.40;;;;;;5071693;28;20040;-73
2022/09/01 10:53:48;;;;;;;0.93;0.20;;;21.50;97.60;;;;;;5070614;28;19982;-75
2022/09/01 10:56:23;;;;;;;1.45;0.10;;;21.80;98.10;;;;;;5070713;28;20064;-75
2022/09/01 10:59:18;;;;;;;2.38;0.10;;;21.40;96.50;;;;;;5064643;28;20040;-71
2022/09/01 11:01:43;;;;;;;;;;;21.40;96.20;;;;;;5070059;28;20083;-72
2022/09/01 11:04:13;;;;;;;5.78;0.20;;;21.50;96.10;;;;;;5070615;28;19970;-72
2022/09/01 11:06:49;;;;;;;1.73;0.30;;;21.50;96.40;;;;;;5069611;28;20484;-76
2022/09/01 11:09:33;;;;;;;1.38;0.10;;;21.60;95.70;;;;;;5069620;28;20048;-73
2022/09/01 11:12:20;;;;;;;1.20;0.30;;;21.70;95.50;;;;;;5080030;28;20036;-74
2022/09/01 11:14:55;;;;;;;2.47;0.60;;;21.60;95.10;;;;;;5061957;28;20476;-74
2022/09/01 11:17:24;;;;;;;1.05;0.20;;;21.70;94.80;;;;;;5070440;28;20434;-76
2022/09/01 11:19:54;;;;;;;0.73;0.28;;;21.70;95.10;;;;;;5070473;28;20534;-73
2022/09/01 11:22:32;;;;;;;0.75;0.20;;;21.60;95.00;;;;;;5070696;28;20435;-71
2022/09/01 11:25:33;;;;;;;2.40;0.40;;;21.60;94.50;;;;;;5064258;28;20120;-74
2022/09/01 11:28:10;;;;;;;1.63;0.20;;;21.50;94.50;;;;;;5067379;28;20056;-76
2022/09/01 11:30:59;;;;;;;0.68;0.30;;;21.40;93.90;;;;;;5069894;28;20049;-75
2022/09/01 11:33:43;;;;;;;1.23;0.30;;;21.30;94.30;;;;;;5068907;28;20051;-73
2022/09/01 11:36:18;;;;;;;2.15;0.30;;;21.50;94.30;;;;;;5062920;28;20039;-71
2022/09/01 11:38:54;;;;;;;1.20;0.20;;;21.30;94.10;;;;;;5069537;28;20059;-71
2022/09/01 11:41:31;;;;;;;1.23;0.30;;;21.30;93.80;;;;;;5070217;28;20040;-69
2022/09/01 11:43:58;;;;;;;1.52;0.28;;;21.30;93.60;;;;;;5062013;28;20548;-69
2022/09/01 11:46:31;;;;;;;3.40;0.80;;;21.50;93.80;;;;;;5069906;28;20158;-68
2022/09/01 11:49:06;;;;;;;0.70;0.10;;;21.70;93.30;;;;;;5067409;28;20492;-70
2022/09/01 11:51:46;;;;;;;4.35;0.40;;;22.10;92.80;;;;;;5068271;28;20055;-69
2022/09/01 11:54:14;;;;;;;0.70;0.20;;;22.10;93.00;;;;;;5068629;28;20123;-72
2022/09/01 11:56:39;;;;;;;1.75;0.30;;;22.40;92.80;;;;;;5070046;28;20048;-74
2022/09/01 11:59:05;;;;;;;0.88;0.10;;;22.60;92.80;;;;;;5066215;28;20388;-73
2022/09/01 12:01:34;;;;;;;1.80;0.30;;;22.80;92.60;;;;;;5068033;28;20479;-73
2022/09/01 12:04:21;;;;;;;0.88;0.20;;;23.00;91.70;;;;;;5068422;28;20055;-75
2022/09/01 12:06:54;;;;;;;3.95;0.20;;;23.10;91.10;;;;;;5070151;28;20488;-70
2022/09/01 12:09:19;;;;;;;1.00;0.15;;;23.20;90.90;;;;;;5061061;28;20047;-73
2022/09/01 12:11:45;;;;;;;2.10;0.30;;;23.40;90.60;;;;;;5069486;28;20028;-74
2022/09/01 12:14:19;;;;;;;1.20;0.17;;;23.50;90.30;;;;;;5069709;28;20087;-74
2022/09/01 12:16:59;;;;;;;0.50;0.30;;;23.50;89.80;;;;;;5069690;28;20044;-74
2022/09/01 12:19:29;;;;;;;1.55;0.20;;;23.30;88.20;;;;;;5068836;28;20472;-70
2022/09/01 12:22:04;;;;;;;1.15;0.35;;;23.30;89.20;;;;;;5069825;28;20036;-75
2022/09/01 12:24:35;;;;;;;0.95;0.17;;;23.30;89.10;;;;;;5068155;28;20044;-73
2022/09/01 12:27:01;;;;;;;1.20;0.20;;;23.40;88.90;;;;;;5060556;28;20036;-71
2022/09/01 12:29:27;;;;;;;0.93;0.52;;;23.60;89.00;;;;;;5069442;28;20049;-71
2022/09/01 12:31:53;;;;;;;5.18;1.80;;;23.80;88.20;;;;;;5069223;28;20488;-72
2022/09/01 12:34:34;;;;;;;2.90;0.30;;;24.00;87.80;;;;;;5069996;28;20032;-73
2022/09/01 12:37:11;;;;;;;1.63;0.32;;;24.20;87.30;;;;;;5063870;28;20102;-71
2022/09/01 12:39:44;;;;;;;1.92;0.20;;;24.40;85.60;;;;;;5064518;28;20041;-73
2022/09/01 12:42:24;;;;;;;2.90;0.30;;;24.50;85.30;;;;;;5068188;28;20048;-71
2022/09/01 12:44:53;;;;;;;1.08;0.52;;;24.40;84.60;;;;;;5069643;28;20385;-71
2022/09/01 12:47:39;;;;;;;1.88;0.50;;;24.30;84.00;;;;;;5070697;28;20048;-75
2022/09/01 12:50:13;;;;;;;0.57;0.38;;;24.50;84.10;;;;;;5065768;28;20464;-72
2022/09/01 12:53:00;;;;;;;1.05;0.20;;;24.50;84.30;;;;;;5069473;28;20408;-74
2022/09/01 12:55:32;;;;;;;1.10;0.13;;;24.60;84.00;;;;;;5072987;28;20436;-73
2022/09/01 12:58:06;;;;;;;0.82;0.20;;;24.70;83.10;;;;;;5072353;28;20094;-72
2022/09/01 13:00:36;;;;;;;;;;;24.70;82.20;;;;;;5071849;28;20036;-71
2022/09/01 13:03:04;;;;;;;2.22;0.20;;;24.70;81.30;;;;;;5065051;28;19920;-71
2022/09/01 13:05:50;;;;;;;1.88;0.50;;;24.80;82.70;;;;;;5070648;28;20048;-71
2022/09/01 13:08:27;;;;;;;2.38;0.20;;;24.80;82.30;;;;;;5065947;28;20381;-71
2022/09/01 13:11:16;;;;;;;0.85;0.28;;;24.80;81.00;;;;;;5072605;28;20454;-71
2022/09/01 13:13:42;;;;;;;2.17;0.40;;;25.40;81.80;;;;;;5073252;28;20052;-71